Time,TemperatureF,DewpointF,PressureIn,WindDirection,WindDirectionDegrees,WindSpeedMPH,WindSpeedGustMPH,Humidity,HourlyPrecipIn,Conditions,Clouds,dailyrainin,SoftwareType,DateUTC
2013-03-04 08:00:00,20.5,15.9,29.60,North,0,0.0,0.0,82,0.00,CLR,,0.00,WeatherDisplay:10.37,2013-03-04 15:00:00,
2013-03-04 08:05:00,20.5,15.9,29.60,North,0,0.0,0.0,82,0.00,CLR,,0.00,WeatherDisplay:10.37,2013-03-04 15:05:00,
2013-03-04 08:10:00,20.7,16.0,29.61,WSW,248,0.0,0.0,82,0.00,CLR,,0.00,WeatherDisplay:10.37,2013-03-04 15:10:00,
2013-03-04 08:15:00,20.7,16.0,29.61,NW,315,0.0,0.0,82,0.00,CLR,,0.00,WeatherDisplay:10.37,2013-03-04 15:15:00,
2013-03-04 08:20:00,20.8,16.2,29.61,WNW,292,0.0,0.0,82,0.00,CLR,,0.00,WeatherDisplay:10.37,2013-03-04 15:20:00,
2013-03-04 08:25:00,21.0,16.4,29.61,WNW,292,0.0,0.0,82,0.00,CLR,,0.00,WeatherDisplay:10.37,2013-03-04 15:25:00,
2013-03-04 08:30:00,21.0,16.4,29.62,WNW,292,0.0,0.0,82,0.00,CLR,,0.00,WeatherDisplay:10.37,2013-03-04 15:30:00,
2013-03-04 08:35:00,21.0,16.4,29.62,NW,315,0.0,0.0,82,0.00,CLR,,0.00,WeatherDisplay:10.37,2013-03-04 15:35:00,
2013-03-04 08:40:00,21.0,16.1,29.62,North,0,0.0,0.0,81,0.00,CLR,,0.00,WeatherDisplay:10.37,2013-03-04 15:40:00,
2013-03-04 08:45:00,21.0,16.1,29.62,NW,315,0.0,0.0,81,0.00,CLR,,0.00,WeatherDisplay:10.37,2013-03-04 15:45:00,
2013-03-04 08:50:00,21.2,16.3,29.62,NW,315,0.0,0.0,81,0.00,CLR,,0.00,WeatherDisplay:10.37,2013-03-04 15:50:00,
2013-03-04 08:55:00,21.4,16.5,29.62,WNW,292,0.0,0.0,81,0.00,CLR,,0.00,WeatherDisplay:10.37,2013-03-04 15:55:00,
2013-03-04 09:00:00,21.7,16.8,29.62,West,270,0.0,0.0,81,0.00,CLR,,0.00,WeatherDisplay:10.37,2013-03-04 16:00:00,
2013-03-04 09:05:00,21.7,16.8,29.62,NW,315,0.0,0.0,81,0.00,CLR,,0.00,WeatherDisplay:10.37,2013-03-04 16:05:00,
2013-03-04 09:10:00,21.9,17.0,29.63,WNW,292,0.0,0.0,81,0.00,CLR,,0.00,WeatherDisplay:10.37,2013-03-04 16:10:00,
2013-03-04 09:15:00,22.3,17.3,29.63,WNW,292,0.0,0.0,81,0.00,CLR,,0.00,WeatherDisplay:10.37,2013-03-04 16:15:00,
2013-03-04 09:20:00,22.5,17.5,29.63,WNW,292,0.0,0.0,81,0.00,CLR,,0.00,WeatherDisplay:10.37,2013-03-04 16:20:00,
2013-03-04 09:25:00,22.6,17.7,29.63,WNW,292,0.0,0.0,81,0.00,CLR,,0.00,WeatherDisplay:10.37,2013-03-04 16:25:00,
2013-03-04 09:30:00,22.8,17.9,29.66,West,270,0.0,0.0,81,0.00,CLR,,0.00,WeatherDisplay:10.37,2013-03-04 16:30:00,
2013-03-04 09:35:00,22.8,17.9,29.66,West,270,0.0,0.0,81,0.00,CLR,,0.00,WeatherDisplay:10.37,2013-03-04 16:35:00,
2013-03-04 09:40:00,22.8,17.9,29.66,WSW,248,0.0,0.0,81,0.00,CLR,,0.00,WeatherDisplay:10.37,2013-03-04 16:40:00,
2013-03-04 09:45:00,23.2,18.2,29.66,NW,315,0.0,0.0,81,0.00,CLR,,0.00,WeatherDisplay:10.37,2013-03-04 16:45:00,
2013-03-04 09:50:00,23.2,18.2,29.68,West,270,0.0,0.0,81,0.00,CLR,,0.00,WeatherDisplay:10.37,2013-03-04 16:50:00,
2013-03-04 09:55:00,23.4,18.4,29.68,WNW,292,0.0,0.0,81,0.00,CLR,,0.00,WeatherDisplay:10.37,2013-03-04 16:55:00,
2013-03-04 10:00:00,23.5,18.6,29.68,WSW,248,0.0,0.0,81,0.00,CLR,,0.00,WeatherDisplay:10.37,2013-03-04 17:00:00,
2013-03-04 10:05:00,23.4,18.4,29.68,North,0,0.0,0.0,81,0.00,CLR,,0.00,WeatherDisplay:10.37,2013-03-04 17:05:00,
2013-03-04 10:10:00,23.5,18.6,29.68,WSW,248,0.0,0.0,81,0.00,CLR,,0.00,WeatherDisplay:10.37,2013-03-04 17:10:00,
2013-03-04 10:15:00,23.9,18.9,29.68,WSW,248,0.0,0.0,81,0.00,CLR,,0.00,WeatherDisplay:10.37,2013-03-04 17:15:00,
2013-03-04 10:20:00,23.9,18.9,29.68,WSW,248,0.0,0.0,81,0.00,CLR,,0.00,WeatherDisplay:10.37,2013-03-04 17:20:00,
2013-03-04 10:25:00,24.1,19.1,29.68,SW,225,0.0,0.0,81,0.00,CLR,,0.00,WeatherDisplay:10.37,2013-03-04 17:25:00,
2013-03-04 10:30:00,23.9,18.9,29.69,ESE,112,0.0,0.2,81,0.00,CLR,,0.00,WeatherDisplay:10.37,2013-03-04 17:30:00,
2013-03-04 10:35:00,24.1,19.1,29.69,ESE,112,0.0,0.3,81,0.00,CLR,,0.00,WeatherDisplay:10.37,2013-03-04 17:35:00,
2013-03-04 10:40:00,24.1,19.1,29.69,South,180,2.3,2.3,81,0.00,CLR,,0.00,WeatherDisplay:10.37,2013-03-04 17:40:00,
2013-03-04 10:45:00,24.1,19.1,29.69,SE,135,0.0,0.8,81,0.00,CLR,,0.00,WeatherDisplay:10.37,2013-03-04 17:45:00,
2013-03-04 10:50:00,24.3,19.3,29.69,SSW,202,2.3,2.3,81,0.00,CLR,,0.00,WeatherDisplay:10.37,2013-03-04 17:50:00,
2013-03-04 10:55:00,24.1,18.8,29.69,SSW,202,2.3,2.3,80,0.00,CLR,,0.00,WeatherDisplay:10.37,2013-03-04 17:55:00,
2013-03-04 11:00:00,24.3,19.0,29.69,SW,225,3.5,3.5,80,0.00,CLR,,0.00,WeatherDisplay:10.37,2013-03-04 18:00:00,
2013-03-04 11:05:00,24.3,19.0,29.69,SSW,202,1.1,1.1,80,0.00,CLR,,0.00,WeatherDisplay:10.37,2013-03-04 18:05:00,
2013-03-04 11:10:00,24.1,18.5,29.70,East,90,4.6,4.6,79,0.00,CLR,,0.00,WeatherDisplay:10.37,2013-03-04 18:10:00,
2013-03-04 11:15:00,24.1,18.5,29.70,West,270,2.3,2.3,79,0.00,CLR,,0.00,WeatherDisplay:10.37,2013-03-04 18:15:00,
2013-03-04 11:20:00,24.1,18.2,29.70,SSW,202,2.3,2.3,78,0.00,CLR,,0.00,WeatherDisplay:10.37,2013-03-04 18:20:00,
2013-03-04 11:25:00,23.9,18.0,29.70,ENE,68,6.9,6.9,78,0.00,CLR,,0.00,WeatherDisplay:10.37,2013-03-04 18:25:00,
2013-03-04 11:29:00,24.1,18.2,29.70,SSW,202,1.1,1.6,78,0.00,CLR,,0.00,WeatherDisplay:10.37,2013-03-04 18:29:00,
2013-03-04 11:30:00,24.1,18.2,29.70,SSW,202,1.1,1.6,78,0.00,CLR,,0.00,WeatherDisplay:10.37,2013-03-04 18:30:00,
2013-03-04 11:31:00,24.3,18.4,29.70,SSW,202,1.1,1.6,78,0.00,CLR,,0.00,WeatherDisplay:10.37,2013-03-04 18:31:00,
2013-03-04 11:36:00,24.3,18.1,29.70,SE,135,1.1,1.1,77,0.00,CLR,,0.00,WeatherDisplay:10.37,2013-03-04 18:36:00,
2013-03-04 11:41:00,24.6,18.4,29.70,East,90,2.3,2.3,77,0.00,CLR,,0.00,WeatherDisplay:10.37,2013-03-04 18:41:00,
2013-03-04 11:46:00,24.6,18.4,29.70,SW,225,2.3,2.3,77,0.00,CLR,,0.00,WeatherDisplay:10.37,2013-03-04 18:46:00,
2013-03-04 11:51:00,24.6,18.4,29.70,SE,135,0.0,1.4,77,0.00,CLR,,0.00,WeatherDisplay:10.37,2013-03-04 18:51:00,
2013-03-04 11:56:00,25.0,18.8,29.70,WSW,248,2.3,2.3,77,0.00,CLR,,0.00,WeatherDisplay:10.37,2013-03-04 18:56:00,
2013-03-04 12:01:00,25.3,19.1,29.70,SSE,158,2.3,2.3,77,0.00,CLR,,0.00,WeatherDisplay:10.37,2013-03-04 19:01:00,
2013-03-04 12:06:00,25.3,19.1,29.70,WSW,248,0.0,0.7,77,0.00,CLR,,0.00,WeatherDisplay:10.37,2013-03-04 19:06:00,
2013-03-04 12:11:00,25.3,19.1,29.70,WSW,248,0.0,0.7,77,0.00,CLR,,0.00,WeatherDisplay:10.37,2013-03-04 19:11:00,
2013-03-04 12:15:00,25.3,18.5,29.70,ESE,112,2.3,2.3,75,0.00,CLR,,0.00,WeatherDisplay:10.37,2013-03-04 19:15:00,
2013-03-04 12:20:00,25.3,18.5,29.70,SSE,158,3.5,3.5,75,0.00,CLR,,0.00,WeatherDisplay:10.37,2013-03-04 19:20:00,
2013-03-04 12:25:00,25.7,18.6,29.70,SE,135,1.1,1.4,74,0.00,CLR,,0.00,WeatherDisplay:10.37,2013-03-04 19:25:00,
2013-03-04 12:30:00,25.7,18.2,29.71,SSW,202,2.3,2.3,73,0.00,CLR,,0.00,WeatherDisplay:10.37,2013-03-04 19:30:00,
2013-03-04 12:35:00,25.7,18.2,29.71,ESE,112,3.5,3.5,73,0.00,CLR,,0.00,WeatherDisplay:10.37,2013-03-04 19:35:00,
2013-03-04 12:40:00,25.7,17.9,29.71,SSE,158,1.1,1.1,72,0.00,CLR,,0.00,WeatherDisplay:10.37,2013-03-04 19:40:00,
2013-03-04 12:45:00,26.1,18.3,29.71,SW,225,2.3,2.3,72,0.00,CLR,,0.00,WeatherDisplay:10.37,2013-03-04 19:45:00,
2013-03-04 12:50:00,26.1,17.9,29.72,SSW,202,2.3,2.3,71,0.00,CLR,,0.00,WeatherDisplay:10.37,2013-03-04 19:50:00,
2013-03-04 12:55:00,25.7,17.6,29.72,WNW,292,1.1,1.1,71,0.00,CLR,,0.00,WeatherDisplay:10.37,2013-03-04 19:55:00,
2013-03-04 13:01:00,25.7,16.9,29.72,WNW,292,0.0,0.5,69,0.00,CLR,,0.00,WeatherDisplay:10.37,2013-03-04 20:01:00,
2013-03-04 13:06:00,25.5,16.8,29.72,WSW,248,2.3,2.3,69,0.00,CLR,,0.00,WeatherDisplay:10.37,2013-03-04 20:06:00,
2013-03-04 13:11:00,25.5,16.8,29.72,SSW,202,0.0,0.8,69,0.00,CLR,,0.00,WeatherDisplay:10.37,2013-03-04 20:11:00,
2013-03-04 13:16:00,25.5,16.8,29.72,SW,225,2.3,2.3,69,0.00,CLR,,0.00,WeatherDisplay:10.37,2013-03-04 20:16:00,
2013-03-04 13:21:00,25.5,16.8,29.72,SSW,202,2.3,2.3,69,0.00,CLR,,0.00,WeatherDisplay:10.37,2013-03-04 20:21:00,
2013-03-04 13:26:00,25.5,16.4,29.72,SSW,202,1.1,1.1,68,0.00,CLR,,0.00,WeatherDisplay:10.37,2013-03-04 20:26:00,
2013-03-04 13:31:00,25.5,16.4,29.72,SSE,158,0.0,0.5,68,0.00,CLR,,0.00,WeatherDisplay:10.37,2013-03-04 20:31:00,
2013-03-04 13:36:00,25.5,16.4,29.72,SSE,158,2.3,2.3,68,0.00,CLR,,0.00,WeatherDisplay:10.37,2013-03-04 20:36:00,
2013-03-04 13:41:00,25.7,16.6,29.72,SSW,202,2.3,2.3,68,0.00,CLR,,0.00,WeatherDisplay:10.37,2013-03-04 20:41:00,
2013-03-04 13:46:00,25.7,16.6,29.72,NW,315,0.0,0.7,68,0.00,CLR,,0.00,WeatherDisplay:10.37,2013-03-04 20:46:00,
2013-03-04 13:51:00,26.1,16.9,29.72,WSW,248,2.3,2.3,68,0.00,CLR,,0.00,WeatherDisplay:10.37,2013-03-04 20:51:00,
2013-03-04 13:56:00,26.1,16.6,29.72,SSE,158,4.6,4.6,67,0.00,CLR,,0.00,WeatherDisplay:10.37,2013-03-04 20:56:00,
2013-03-04 14:01:00,26.1,16.6,29.72,South,180,2.3,2.3,67,0.00,CLR,,0.00,WeatherDisplay:10.37,2013-03-04 21:01:00,
2013-03-04 14:06:00,25.9,16.4,29.72,SSE,158,3.5,3.5,67,0.00,CLR,,0.00,WeatherDisplay:10.37,2013-03-04 21:06:00,
2013-03-04 14:11:00,26.1,16.6,29.72,NNW,338,0.0,1.1,67,0.00,CLR,,0.00,WeatherDisplay:10.37,2013-03-04 21:11:00,
2013-03-04 14:16:00,26.2,16.8,29.72,SSW,202,1.1,1.1,67,0.00,CLR,,0.00,WeatherDisplay:10.37,2013-03-04 21:16:00,
2013-03-04 14:21:00,26.4,16.9,29.72,SSW,202,1.1,1.1,67,0.00,CLR,,0.00,WeatherDisplay:10.37,2013-03-04 21:21:00,
2013-03-04 14:26:00,26.8,17.3,29.72,NNW,338,0.0,0.3,67,0.00,CLR,,0.00,WeatherDisplay:10.37,2013-03-04 21:26:00,
2013-03-04 14:31:00,27.7,18.1,29.71,NW,315,0.0,0.0,67,0.00,CLR,,0.00,WeatherDisplay:10.37,2013-03-04 21:31:00,
2013-03-04 14:36:00,27.7,18.1,29.71,SSW,202,0.0,0.3,67,0.00,CLR,,0.00,WeatherDisplay:10.37,2013-03-04 21:36:00,
2013-03-04 14:41:00,27.5,17.3,29.71,ENE,68,2.3,2.3,65,0.00,CLR,,0.00,WeatherDisplay:10.37,2013-03-04 21:41:00,
2013-03-04 14:46:00,27.3,17.1,29.71,WNW,292,0.0,0.8,65,0.00,CLR,,0.00,WeatherDisplay:10.37,2013-03-04 21:46:00,
2013-03-04 14:51:00,27.5,17.3,29.71,WSW,248,0.0,0.6,65,0.00,CLR,,0.00,WeatherDisplay:10.37,2013-03-04 21:51:00,
2013-03-04 14:56:00,27.5,17.3,29.71,WNW,292,2.3,2.3,65,0.00,CLR,,0.00,WeatherDisplay:10.37,2013-03-04 21:56:00,
2013-03-04 15:01:00,27.5,17.3,29.71,SW,225,2.3,2.3,65,0.00,CLR,,0.00,WeatherDisplay:10.37,2013-03-04 22:01:00,
2013-03-04 15:06:00,27.1,16.6,29.71,SSW,202,3.5,3.5,64,0.00,CLR,,0.00,WeatherDisplay:10.37,2013-03-04 22:06:00,
2013-03-04 15:11:00,26.4,15.5,29.70,NE,45,1.1,1.4,63,0.00,CLR,,0.00,WeatherDisplay:10.37,2013-03-04 22:11:00,
2013-03-04 15:16:00,26.4,15.5,29.70,South,180,2.3,2.3,63,0.00,CLR,,0.00,WeatherDisplay:10.37,2013-03-04 22:16:00,
2013-03-04 15:21:00,26.1,15.5,29.70,NNE,22,0.0,0.1,64,0.00,CLR,,0.00,WeatherDisplay:10.37,2013-03-04 22:21:00,
2013-03-04 15:26:00,26.1,15.5,29.70,East,90,0.0,0.1,64,0.00,CLR,,0.00,WeatherDisplay:10.37,2013-03-04 22:26:00,
2013-03-04 15:31:00,26.1,15.5,29.70,WSW,248,1.1,1.1,64,0.00,CLR,,0.00,WeatherDisplay:10.37,2013-03-04 22:31:00,
2013-03-04 15:36:00,25.7,15.2,29.70,SW,225,4.6,4.6,64,0.00,CLR,,0.00,WeatherDisplay:10.37,2013-03-04 22:36:00,
2013-03-04 15:41:00,25.7,15.2,29.70,SSW,202,1.1,1.1,64,0.00,CLR,,0.00,WeatherDisplay:10.37,2013-03-04 22:41:00,
2013-03-04 15:46:00,25.5,15.0,29.70,NW,315,0.0,0.8,64,0.00,CLR,,0.00,WeatherDisplay:10.37,2013-03-04 22:46:00,
2013-03-04 15:51:00,25.5,15.0,29.69,East,90,0.0,0.6,64,0.00,CLR,,0.00,WeatherDisplay:10.37,2013-03-04 22:51:00,
2013-03-04 15:56:00,25.3,14.9,29.69,West,270,0.0,0.5,64,0.00,CLR,,0.00,WeatherDisplay:10.37,2013-03-04 22:56:00,
2013-03-04 16:01:00,25.3,14.9,29.69,NE,45,0.0,0.0,64,0.00,CLR,,0.00,WeatherDisplay:10.37,2013-03-04 23:01:00,
2013-03-04 16:06:00,25.3,14.5,29.67,SW,225,2.3,2.3,63,0.00,CLR,,0.00,WeatherDisplay:10.37,2013-03-04 23:06:00,
2013-03-04 16:11:00,25.2,14.3,29.67,South,180,0.0,0.6,63,0.00,CLR,,0.00,WeatherDisplay:10.37,2013-03-04 23:11:00,
2013-03-04 16:16:00,25.3,14.5,29.67,East,90,3.0,3.0,63,0.00,CLR,,0.00,WeatherDisplay:10.37,2013-03-04 23:16:00,
2013-03-04 16:22:00,25.3,14.5,29.67,SE,135,3.5,3.5,63,0.00,CLR,,0.00,WeatherDisplay:10.37,2013-03-04 23:22:00,
2013-03-04 16:27:00,25.0,14.2,29.63,NE,45,0.0,1.0,63,0.00,CLR,,0.00,WeatherDisplay:10.37,2013-03-04 23:27:00,
2013-03-04 16:32:00,25.0,14.5,29.63,NE,45,0.0,0.5,64,0.00,CLR,,0.00,WeatherDisplay:10.37,2013-03-04 23:32:00,
2013-03-04 16:37:00,24.8,14.0,29.63,SE,135,1.1,1.1,63,0.00,CLR,,0.00,WeatherDisplay:10.37,2013-03-04 23:37:00,
2013-03-04 16:42:00,24.8,14.3,29.63,SSE,158,0.0,0.1,64,0.00,CLR,,0.00,WeatherDisplay:10.37,2013-03-04 23:42:00,
2013-03-04 16:47:00,24.8,14.3,29.63,SSE,158,0.0,0.0,64,0.00,CLR,,0.00,WeatherDisplay:10.37,2013-03-04 23:47:00,
2013-03-04 16:52:00,24.6,13.8,29.62,SSE,158,1.4,1.4,63,0.00,CLR,,0.00,WeatherDisplay:10.37,2013-03-04 23:52:00,
2013-03-04 16:57:00,24.6,14.2,29.62,SW,225,1.1,1.1,64,0.00,CLR,,0.00,WeatherDisplay:10.37,2013-03-04 23:57:00,
2013-03-04 17:02:00,24.6,13.8,29.62,WNW,292,0.0,0.5,63,0.00,CLR,,0.00,WeatherDisplay:10.37,2013-03-05 00:02:00,
2013-03-04 17:07:00,24.6,14.2,29.61,ENE,68,0.0,0.3,64,0.00,CLR,,0.00,WeatherDisplay:10.37,2013-03-05 00:07:00,
2013-03-04 17:12:00,24.6,14.2,29.61,ENE,68,0.0,0.1,64,0.00,CLR,,0.00,WeatherDisplay:10.37,2013-03-05 00:12:00,
2013-03-04 17:17:00,24.3,13.8,29.61,ENE,68,0.0,0.0,64,0.00,CLR,,0.00,WeatherDisplay:10.37,2013-03-05 00:17:00,
2013-03-04 17:22:00,24.3,13.8,29.61,East,90,0.0,0.0,64,0.00,CLR,,0.00,WeatherDisplay:10.37,2013-03-05 00:22:00,
2013-03-04 17:27:00,23.9,13.5,29.60,East,90,0.0,0.0,64,0.00,CLR,,0.00,WeatherDisplay:10.37,2013-03-05 00:27:00,
2013-03-04 17:32:00,23.9,13.5,29.60,ENE,68,0.0,0.0,64,0.00,CLR,,0.00,WeatherDisplay:10.37,2013-03-05 00:32:00,
2013-03-04 17:37:00,23.9,13.8,29.60,ESE,112,0.0,0.0,65,0.00,CLR,,0.00,WeatherDisplay:10.37,2013-03-05 00:37:00,
2013-03-04 17:42:00,23.5,13.5,29.60,ESE,112,0.0,0.0,65,0.00,CLR,,0.00,WeatherDisplay:10.37,2013-03-05 00:42:00,
2013-03-04 17:47:00,23.4,13.3,29.60,NE,45,0.0,0.0,65,0.00,CLR,,0.00,WeatherDisplay:10.37,2013-03-05 00:47:00,
2013-03-04 17:52:00,23.2,13.1,29.61,ENE,68,0.0,0.0,65,0.00,CLR,,0.00,WeatherDisplay:10.37,2013-03-05 00:52:00,
2013-03-04 17:57:00,22.8,12.8,29.61,ENE,68,0.0,0.0,65,0.00,CLR,,0.00,WeatherDisplay:10.37,2013-03-05 00:57:00,
2013-03-04 18:02:00,22.6,12.6,29.61,NE,45,0.0,0.0,65,0.00,CLR,,0.00,WeatherDisplay:10.37,2013-03-05 01:02:00,
2013-03-04 18:07:00,22.5,12.5,29.60,ENE,68,0.0,0.0,65,0.00,CLR,,0.00,WeatherDisplay:10.37,2013-03-05 01:07:00,
2013-03-04 18:12:00,22.5,12.5,29.60,East,90,0.0,0.0,65,0.00,CLR,,0.00,WeatherDisplay:10.37,2013-03-05 01:12:00,
2013-03-04 18:17:00,21.7,11.8,29.60,North,0,0.0,0.0,65,0.00,CLR,,0.00,WeatherDisplay:10.37,2013-03-05 01:17:00,
2013-03-04 18:22:00,21.7,12.1,29.60,North,0,0.0,0.0,66,0.00,CLR,,0.00,WeatherDisplay:10.37,2013-03-05 01:22:00,
2013-03-04 18:27:00,21.2,11.6,29.59,NNW,338,0.0,0.0,66,0.00,CLR,,0.00,WeatherDisplay:10.37,2013-03-05 01:27:00,
2013-03-04 18:32:00,21.0,11.4,29.59,NE,45,0.0,0.0,66,0.00,CLR,,0.00,WeatherDisplay:10.37,2013-03-05 01:32:00,
2013-03-04 18:37:00,20.5,10.9,29.59,NNW,338,0.0,0.0,66,0.00,CLR,,0.00,WeatherDisplay:10.37,2013-03-05 01:37:00,
2013-03-04 18:42:00,20.3,10.4,29.59,NE,45,0.0,0.0,65,0.00,CLR,,0.00,WeatherDisplay:10.37,2013-03-05 01:42:00,
2013-03-04 18:47:00,19.8,10.2,29.59,North,0,0.0,0.0,66,0.00,CLR,,0.00,WeatherDisplay:10.37,2013-03-05 01:47:00,
2013-03-04 18:52:00,19.6,10.1,29.59,North,0,0.0,0.0,66,0.00,CLR,,0.00,WeatherDisplay:10.37,2013-03-05 01:52:00,
2013-03-04 18:58:00,19.2,9.7,29.59,NNE,22,0.0,0.0,66,0.00,CLR,,0.00,WeatherDisplay:10.37,2013-03-05 01:58:00,
2013-03-04 19:03:00,18.9,9.4,29.59,North,0,0.0,0.0,66,0.00,CLR,,0.00,WeatherDisplay:10.37,2013-03-05 02:03:00,
2013-03-04 19:08:00,18.5,9.0,29.60,NNE,22,0.0,0.0,66,0.00,CLR,,0.00,WeatherDisplay:10.37,2013-03-05 02:08:00,
2013-03-04 19:13:00,18.1,8.7,29.60,NNE,22,0.0,0.0,66,0.00,CLR,,0.00,WeatherDisplay:10.37,2013-03-05 02:13:00,
2013-03-04 19:18:00,17.8,8.3,29.60,NE,45,0.0,0.0,66,0.00,CLR,,0.00,WeatherDisplay:10.37,2013-03-05 02:18:00,
2013-03-04 19:23:00,17.4,8.0,29.60,NE,45,0.0,0.0,66,0.00,CLR,,0.00,WeatherDisplay:10.37,2013-03-05 02:23:00,
2013-03-04 19:28:00,17.4,8.0,29.61,NNE,22,0.0,0.0,66,0.00,CLR,,0.00,WeatherDisplay:10.37,2013-03-05 02:28:00,
2013-03-04 19:33:00,17.1,7.6,29.61,North,0,0.0,0.0,66,0.00,CLR,,0.00,WeatherDisplay:10.37,2013-03-05 02:33:00,
2013-03-04 19:38:00,16.9,7.5,29.61,North,0,0.0,0.0,66,0.00,CLR,,0.00,WeatherDisplay:10.37,2013-03-05 02:38:00,
2013-03-04 19:43:00,16.5,7.1,29.61,North,0,0.0,0.0,66,0.00,CLR,,0.00,WeatherDisplay:10.37,2013-03-05 02:43:00,
2013-03-04 19:48:00,16.7,7.6,29.61,North,0,0.0,0.0,67,0.00,CLR,,0.00,WeatherDisplay:10.37,2013-03-05 02:48:00,
2013-03-04 19:53:00,16.3,7.3,29.61,NNE,22,0.0,0.0,67,0.00,CLR,,0.00,WeatherDisplay:10.37,2013-03-05 02:53:00,
2013-03-04 19:58:00,16.0,6.9,29.61,NNW,338,0.0,0.0,67,0.00,CLR,,0.00,WeatherDisplay:10.37,2013-03-05 02:58:00,
2013-03-04 20:03:00,16.0,6.9,29.61,North,0,0.0,0.0,67,0.00,CLR,,0.00,WeatherDisplay:10.37,2013-03-05 03:03:00,
2013-03-04 20:08:00,15.4,6.4,29.60,NNE,22,0.0,0.0,67,0.00,CLR,,0.00,WeatherDisplay:10.37,2013-03-05 03:08:00,
2013-03-04 20:13:00,15.3,6.3,29.60,North,0,0.0,0.0,67,0.00,CLR,,0.00,WeatherDisplay:10.37,2013-03-05 03:13:00,
2013-03-04 20:18:00,15.3,6.3,29.60,North,0,0.0,0.0,67,0.00,CLR,,0.00,WeatherDisplay:10.37,2013-03-05 03:18:00,
2013-03-04 20:23:00,14.9,5.9,29.60,North,0,0.0,0.0,67,0.00,CLR,,0.00,WeatherDisplay:10.37,2013-03-05 03:23:00,
2013-03-04 20:28:00,14.5,5.6,29.60,North,0,0.0,0.0,67,0.00,CLR,,0.00,WeatherDisplay:10.37,2013-03-05 03:28:00,
2013-03-04 20:33:00,14.5,5.6,29.60,North,0,0.0,0.0,67,0.00,CLR,,0.00,WeatherDisplay:10.37,2013-03-05 03:33:00,
2013-03-04 20:38:00,14.5,5.6,29.60,North,0,0.0,0.0,67,0.00,CLR,,0.00,WeatherDisplay:10.37,2013-03-05 03:38:00,
2013-03-04 20:43:00,14.0,5.1,29.60,NNE,22,0.0,0.0,67,0.00,CLR,,0.00,WeatherDisplay:10.37,2013-03-05 03:43:00,
2013-03-04 20:48:00,13.8,4.9,29.60,NNE,22,0.0,0.0,67,0.00,CLR,,0.00,WeatherDisplay:10.37,2013-03-05 03:48:00,
2013-03-04 20:53:00,13.8,4.9,29.60,North,0,0.0,0.0,67,0.00,CLR,,0.00,WeatherDisplay:10.37,2013-03-05 03:53:00,
2013-03-04 20:58:00,13.8,4.9,29.60,North,0,0.0,0.0,67,0.00,CLR,,0.00,WeatherDisplay:10.37,2013-03-05 03:58:00,
2013-03-04 21:03:00,13.8,4.9,29.60,North,0,0.0,0.0,67,0.00,CLR,,0.00,WeatherDisplay:10.37,2013-03-05 04:03:00,
2013-03-04 21:08:00,13.5,4.5,29.59,North,0,0.0,0.0,67,0.00,CLR,,0.00,WeatherDisplay:10.37,2013-03-05 04:08:00,
2013-03-04 21:13:00,13.1,4.2,29.59,NE,45,0.0,0.0,67,0.00,CLR,,0.00,WeatherDisplay:10.37,2013-03-05 04:13:00,
2013-03-04 21:18:00,13.1,4.2,29.59,North,0,0.0,0.0,67,0.00,CLR,,0.00,WeatherDisplay:10.37,2013-03-05 04:18:00,
2013-03-04 21:23:00,13.1,4.5,29.59,North,0,0.0,0.0,68,0.00,CLR,,0.00,WeatherDisplay:10.37,2013-03-05 04:23:00,
2013-03-04 21:28:00,12.7,3.8,29.60,North,0,0.0,0.0,67,0.00,CLR,,0.00,WeatherDisplay:10.37,2013-03-05 04:28:00,
2013-03-04 21:33:00,12.4,3.5,29.60,NNW,338,0.0,0.0,67,0.00,CLR,,0.00,WeatherDisplay:10.37,2013-03-05 04:33:00,
2013-03-04 21:39:00,12.4,3.5,29.60,NNE,22,0.0,0.0,67,0.00,CLR,,0.00,WeatherDisplay:10.37,2013-03-05 04:39:00,
2013-03-04 21:44:00,12.0,3.2,29.60,NNW,338,0.0,0.0,67,0.00,CLR,,0.00,WeatherDisplay:10.37,2013-03-05 04:44:00,
2013-03-04 23:55:00,9.1,0.7,29.58,North,0,0.0,0.0,68,0.00,CLR,,0.00,WeatherDisplay:10.37,2013-03-05 06:55:00,
2013-03-04 23:56:00,9.1,0.7,29.58,North,0,0.0,0.0,68,0.00,CLR,,0.00,WeatherDisplay:10.37,2013-03-05 06:56:00,